Gooch Mill, Missouri
Current Conditions -  °F | °C
As of 2:15 PM on Sunday 25 Jan 2015 (Local Time) from KVER Reporting Station
Light Rain Light Rain  
Wind Chill: 29°   Ceiling: 800
Heat Index: 38°   Visibility: 10mi
Dew Point: 37°   Wind: 18mph
Humidity: 95%   Direction: 350°N
Pressure: 29.77"   Gusts: 26mph
Location:  38.8814°N, 92.7602°W
Report Text: KVER 252015Z AUTO 35016G23KT 10SM -RA OVC008 04/03 A2977 RMK AO2 T00350028
Loading
Personal Weather Stations






























Interactive Weather Map New forecast layout! Learn more

10-Day Weather Forecast

Advertisements
Track Severe Weather on mobile